createdAt,value
2018-05-11T00:00:58.529Z,71.50
2018-05-11T00:03:26.002Z,72.30
2018-05-11T00:05:53.498Z,71.90
2018-05-11T00:08:21.001Z,72.30
2018-05-11T00:10:48.456Z,72.20
2018-05-11T00:13:15.987Z,72.10
2018-05-11T00:15:43.485Z,72.30
2018-05-11T00:18:11.020Z,72.20
2018-05-11T00:20:38.498Z,72.30
2018-05-11T00:23:05.981Z,72.30
2018-05-11T00:25:33.460Z,72.10
2018-05-11T00:28:00.956Z,72.00
2018-05-11T00:30:28.457Z,71.80
2018-05-11T00:32:56.705Z,72.10
2018-05-11T00:35:24.184Z,72.10
2018-05-11T00:37:51.680Z,72.40
2018-05-11T00:40:19.160Z,72.00
2018-05-11T00:42:46.641Z,72.20
2018-05-11T00:45:14.139Z,72.30
2018-05-11T00:47:42.416Z,72.20
2018-05-11T00:50:10.664Z,72.40
2018-05-11T00:52:38.132Z,72.40
2018-05-11T00:55:17.525Z,72.50
2018-05-11T00:57:45.006Z,72.30
2018-05-11T01:00:12.484Z,72.40
2018-05-11T01:02:40.003Z,72.30
2018-05-11T01:05:07.477Z,72.80
2018-05-11T01:07:34.992Z,72.70
2018-05-11T01:10:03.225Z,72.70
2018-05-11T01:12:31.501Z,72.70
2018-05-11T01:14:59.009Z,72.70
2018-05-11T01:17:26.514Z,72.70
2018-05-11T01:19:53.972Z,72.90
2018-05-11T01:22:21.483Z,72.80
2018-05-11T01:24:48.968Z,72.90
2018-05-11T01:27:16.440Z,72.90
2018-05-11T01:29:43.956Z,72.60
2018-05-11T01:32:11.436Z,72.70
2018-05-11T01:34:38.928Z,72.90
2018-05-11T01:37:06.432Z,72.70
2018-05-11T01:39:33.937Z,72.80
2018-05-11T01:42:01.410Z,72.70
2018-05-11T01:44:28.901Z,72.80
2018-05-11T01:46:56.379Z,73.10
2018-05-11T01:49:23.888Z,73.20
2018-05-11T01:51:51.360Z,72.80
2018-05-11T01:54:19.621Z,72.80
2018-05-11T01:56:47.097Z,72.80
2018-05-11T01:59:15.345Z,72.60
2018-05-11T02:01:42.850Z,72.50
2018-05-11T02:04:10.317Z,72.50
2018-05-11T02:06:37.816Z,72.50
2018-05-11T02:09:06.105Z,72.50
2018-05-11T02:11:33.625Z,72.30
2018-05-11T02:14:01.090Z,72.40
2018-05-11T02:16:28.600Z,72.10
2018-05-11T02:18:56.069Z,72.10
2018-05-11T02:21:24.341Z,72.20
2018-05-11T02:23:52.589Z,72.30
2018-05-11T02:26:20.110Z,72.30
2018-05-11T02:28:47.609Z,72.30
2018-05-11T02:31:15.122Z,72.00
2018-05-11T02:33:42.593Z,71.80
2018-05-11T02:36:10.077Z,72.00
2018-05-11T02:38:37.576Z,71.80
2018-05-11T02:41:05.832Z,71.90
2018-05-11T02:43:33.387Z,71.90
2018-05-11T02:46:00.866Z,72.10
2018-05-11T02:48:29.128Z,71.60
2018-05-11T02:50:56.616Z,71.60
2018-05-11T02:53:24.877Z,72.00
2018-05-11T02:55:53.110Z,72.30
2018-05-11T02:58:20.611Z,72.30
2018-05-11T03:00:48.848Z,72.00
2018-05-11T03:03:16.339Z,71.90
2018-05-11T03:05:44.582Z,72.10
2018-05-11T03:08:12.173Z,72.10
2018-05-11T03:10:39.641Z,72.00
2018-05-11T03:13:07.885Z,71.70
2018-05-11T03:15:35.389Z,71.70
2018-05-11T03:18:02.890Z,71.70
2018-05-11T03:20:30.387Z,71.80
2018-05-11T03:22:57.845Z,71.90
2018-05-11T03:25:26.092Z,72.20
2018-05-11T03:27:53.561Z,72.10
2018-05-11T03:30:21.086Z,72.30
2018-05-11T03:32:48.553Z,72.20
2018-05-11T03:35:16.049Z,72.10
2018-05-11T03:37:43.517Z,72.40
2018-05-11T03:40:11.004Z,72.50
2018-05-11T03:42:38.488Z,72.20
2018-05-11T03:45:05.944Z,72.20
2018-05-11T03:47:33.436Z,72.00
2018-05-11T03:50:00.933Z,71.90
2018-05-11T03:52:28.431Z,71.80
2018-05-11T03:54:55.947Z,71.60
2018-05-11T03:57:24.272Z,71.60
2018-05-11T03:59:51.761Z,71.60
2018-05-11T04:02:32.025Z,71.50
2018-05-11T04:05:11.469Z,71.50
2018-05-11T04:07:51.563Z,71.40
2018-05-11T04:10:19.070Z,71.30
2018-05-11T04:12:46.532Z,71.30
2018-05-11T04:15:14.014Z,71.60
2018-05-11T04:17:41.580Z,71.40
2018-05-11T04:20:09.065Z,71.50
2018-05-11T04:22:36.549Z,71.50
2018-05-11T04:25:04.053Z,71.80
2018-05-11T04:27:31.521Z,71.90
2018-05-11T04:29:59.022Z,72.00
2018-05-11T04:32:26.511Z,71.70
2018-05-11T04:34:54.761Z,71.40
2018-05-11T04:37:22.273Z,71.40
2018-05-11T04:39:50.523Z,71.80
2018-05-11T04:42:18.768Z,71.90
2018-05-11T04:44:46.245Z,71.90
2018-05-11T04:47:13.768Z,71.90
2018-05-11T04:49:41.249Z,71.80
2018-05-11T04:52:08.756Z,72.00
2018-05-11T04:54:36.225Z,72.50
2018-05-11T04:57:03.718Z,72.40
2018-05-11T04:59:31.198Z,72.40
2018-05-11T05:01:58.690Z,72.60
2018-05-11T05:04:26.178Z,72.50
2018-05-11T05:06:53.645Z,72.30
2018-05-11T05:09:21.163Z,72.10
2018-05-11T05:11:48.660Z,71.90
2018-05-11T05:14:16.156Z,72.40
2018-05-11T05:16:44.413Z,72.40
2018-05-11T05:19:11.957Z,72.40
2018-05-11T05:21:40.182Z,72.30
2018-05-11T05:24:08.435Z,72.50
2018-05-11T05:26:36.672Z,72.50
2018-05-11T05:29:04.193Z,72.50
2018-05-11T05:31:32.497Z,72.20
2018-05-11T05:33:59.979Z,72.20
2018-05-11T05:36:27.449Z,72.00
2018-05-11T05:38:54.950Z,72.00
2018-05-11T05:41:23.234Z,71.90
2018-05-11T05:43:50.723Z,71.90
2018-05-11T05:46:18.221Z,72.10
2018-05-11T05:48:45.698Z,72.00
2018-05-11T05:51:13.230Z,72.30
2018-05-11T05:53:40.777Z,72.30
2018-05-11T05:56:08.282Z,72.20
2018-05-11T05:58:35.793Z,71.80
2018-05-11T06:01:03.300Z,71.70
2018-05-11T06:03:31.565Z,70.80
2018-05-11T06:05:59.829Z,70.80
2018-05-11T06:08:28.100Z,71.50
2018-05-11T06:10:55.671Z,71.40
2018-05-11T06:13:23.154Z,70.00
2018-05-11T06:15:50.652Z,70.00
2018-05-11T06:18:18.125Z,69.90
2018-05-11T06:20:45.599Z,70.30
2018-05-11T06:23:13.169Z,67.80
2018-05-11T06:25:40.670Z,67.20
2018-05-11T06:28:08.168Z,66.70
2018-05-11T06:30:35.646Z,67.70
2018-05-11T06:33:03.941Z,64.30
2018-05-11T06:35:32.200Z,65.00
2018-05-11T06:38:00.470Z,64.50
2018-05-11T06:40:28.787Z,63.30
2018-05-11T06:42:56.220Z,63.40
2018-05-11T06:45:24.481Z,64.10
2018-05-11T06:47:52.013Z,64.00
2018-05-11T06:50:19.489Z,64.50
2018-05-11T06:52:46.978Z,62.40
2018-05-11T06:55:15.280Z,61.50
2018-05-11T06:57:42.769Z,61.50
2018-05-11T07:00:10.282Z,59.20
2018-05-11T07:02:37.765Z,56.70
2018-05-11T07:05:05.304Z,55.10
2018-05-11T07:07:32.909Z,53.20
2018-05-11T07:10:00.324Z,52.40
2018-05-11T07:12:27.802Z,49.00
2018-05-11T07:14:55.339Z,48.10
2018-05-11T07:17:23.590Z,51.60
2018-05-11T07:19:51.907Z,47.10
2018-05-11T07:22:19.385Z,47.10
2018-05-11T07:24:46.921Z,47.30
2018-05-11T07:27:14.425Z,45.80
2018-05-11T07:29:41.926Z,45.50
2018-05-11T07:32:09.451Z,42.80
2018-05-11T07:34:36.929Z,41.50
2018-05-11T07:37:05.192Z,44.40
2018-05-11T07:39:33.470Z,46.30
2018-05-11T07:42:02.565Z,45.90
2018-05-11T07:44:30.792Z,44.20
2018-05-11T07:46:58.291Z,44.00
2018-05-11T07:49:27.283Z,45.70
2018-05-11T07:51:54.797Z,45.40
2018-05-11T07:54:22.295Z,44.40
2018-05-11T07:56:49.796Z,45.40
2018-05-11T07:59:17.269Z,45.00
2018-05-11T08:01:44.842Z,43.70
2018-05-11T08:04:12.320Z,44.10
2018-05-11T08:06:39.830Z,44.80
2018-05-11T08:09:08.120Z,43.50
2018-05-11T08:11:35.602Z,43.50
2018-05-11T08:14:03.156Z,42.50
2018-05-11T08:16:30.622Z,45.00
2018-05-11T08:18:58.172Z,42.40
2018-05-11T08:21:25.717Z,41.10
2018-05-11T08:23:53.180Z,41.30
2018-05-11T08:26:20.677Z,41.70
2018-05-11T08:28:48.174Z,42.60
2018-05-11T08:31:16.449Z,42.00
2018-05-11T08:33:44.731Z,42.70
2018-05-11T08:36:12.965Z,42.80
2018-05-11T08:38:40.470Z,42.80
2018-05-11T08:41:08.734Z,43.90
2018-05-11T08:43:36.981Z,43.60
2018-05-11T08:46:04.488Z,43.50
2018-05-11T08:48:32.758Z,41.50
2018-05-11T08:51:01.048Z,43.70
2018-05-11T08:53:29.304Z,41.60
2018-05-11T08:55:57.678Z,40.70
2018-05-11T08:58:25.078Z,40.70
2018-05-11T09:00:52.670Z,41.00
2018-05-11T09:03:20.844Z,40.30
2018-05-11T09:05:48.405Z,40.30
2018-05-11T09:08:15.964Z,39.40
2018-05-11T09:10:43.475Z,40.00
2018-05-11T09:13:10.952Z,40.00
2018-05-11T09:15:38.557Z,39.10
2018-05-11T09:18:06.026Z,39.20
2018-05-11T09:20:33.541Z,40.70
2018-05-11T09:23:01.009Z,40.20
2018-05-11T09:25:28.516Z,39.70
2018-05-11T09:27:56.828Z,39.00
2018-05-11T09:30:24.317Z,39.00
2018-05-11T09:32:51.837Z,40.10
2018-05-11T09:35:19.306Z,39.80
2018-05-11T09:37:46.858Z,41.40
2018-05-11T09:40:14.329Z,39.40
2018-05-11T09:42:41.881Z,38.20
2018-05-11T09:45:09.377Z,39.10
2018-05-11T09:47:38.395Z,38.40
2018-05-11T09:50:06.643Z,38.50
2018-05-11T09:52:36.564Z,39.00
2018-05-11T09:55:05.614Z,38.70
2018-05-11T09:57:33.850Z,39.20
2018-05-11T10:00:01.392Z,39.20
2018-05-11T10:02:28.892Z,38.50
2018-05-11T10:04:56.386Z,38.20
2018-05-11T10:07:23.881Z,39.20
2018-05-11T10:09:51.373Z,40.00
2018-05-11T10:12:18.849Z,39.80
2018-05-11T10:14:46.345Z,41.70
2018-05-11T10:17:15.352Z,38.20
2018-05-11T10:19:44.222Z,38.20
2018-05-11T10:22:11.720Z,38.40
2018-05-11T10:24:40.012Z,38.70
2018-05-11T10:27:07.474Z,38.60
2018-05-11T10:29:34.969Z,39.50
2018-05-11T10:32:02.472Z,39.60
2018-05-11T10:34:30.802Z,40.50
2018-05-11T10:36:59.023Z,39.60
2018-05-11T10:39:27.301Z,39.00
2018-05-11T10:41:55.561Z,38.70
2018-05-11T10:44:23.044Z,38.70
2018-05-11T10:46:51.321Z,39.00
2018-05-11T10:49:18.818Z,39.00
2018-05-11T10:51:46.369Z,40.20
2018-05-11T10:54:13.844Z,40.60
2018-05-11T10:56:41.365Z,39.80
2018-05-11T10:59:08.842Z,41.00
2018-05-11T11:01:36.353Z,39.60
2018-05-11T11:04:03.868Z,40.20
2018-05-11T11:06:31.419Z,39.20
2018-05-11T11:08:58.902Z,39.20
2018-05-11T11:11:26.412Z,39.90
2018-05-11T11:13:54.700Z,39.90
2018-05-11T11:16:22.244Z,39.90
2018-05-11T11:18:50.493Z,38.80
2018-05-11T11:21:18.733Z,39.80
2018-05-11T11:23:46.254Z,39.80
2018-05-11T11:26:14.535Z,39.90
2018-05-11T11:28:42.811Z,39.30
2018-05-11T11:31:11.596Z,40.30
2018-05-11T11:33:39.112Z,40.10
2018-05-11T11:36:06.602Z,41.20
2018-05-11T11:38:34.092Z,39.90
2018-05-11T11:41:01.594Z,41.20
2018-05-11T11:43:29.089Z,40.80
2018-05-11T11:45:57.338Z,41.20
2018-05-11T11:48:24.834Z,41.20
2018-05-11T11:50:53.081Z,39.60
2018-05-11T11:53:20.577Z,39.60
2018-05-11T11:55:48.065Z,39.60
2018-05-11T11:58:15.593Z,40.50
2018-05-11T12:00:43.850Z,40.00
2018-05-11T12:03:12.130Z,39.80
2018-05-11T12:05:40.404Z,40.10
2018-05-11T12:08:08.662Z,40.40
2018-05-11T12:10:36.154Z,40.20
2018-05-11T12:13:04.417Z,39.70
2018-05-11T12:15:32.689Z,39.60
2018-05-11T12:18:00.192Z,39.60
2018-05-11T12:20:27.690Z,40.50
2018-05-11T12:22:55.232Z,40.00
2018-05-11T12:25:22.736Z,39.90
2018-05-11T12:27:50.998Z,39.70
2018-05-11T12:30:18.532Z,39.70
2018-05-11T12:32:46.035Z,40.70
2018-05-11T12:35:14.339Z,38.50
2018-05-11T12:37:41.900Z,38.50
2018-05-11T12:40:09.394Z,39.70
2018-05-11T12:42:36.883Z,40.00
2018-05-11T12:45:05.157Z,40.00
2018-05-11T12:47:33.423Z,39.70
2018-05-11T12:50:01.673Z,40.30
2018-05-11T12:52:29.201Z,40.20
2018-05-11T12:54:56.685Z,40.20
2018-05-11T12:57:24.233Z,39.80
2018-05-11T12:59:51.718Z,40.80
2018-05-11T13:02:19.243Z,39.50
2018-05-11T13:04:46.741Z,38.90
2018-05-11T13:07:14.348Z,40.40
2018-05-11T13:09:41.786Z,39.70
2018-05-11T13:12:10.053Z,40.10
2018-05-11T13:14:37.582Z,40.10
2018-05-11T13:17:05.059Z,39.70
2018-05-11T13:19:32.744Z,40.90
2018-05-11T13:22:00.998Z,39.90
2018-05-11T13:24:28.472Z,39.70
2018-05-11T13:26:55.998Z,40.40
2018-05-11T13:29:23.489Z,40.60
2018-05-11T13:31:50.992Z,42.20
2018-05-11T13:34:18.484Z,42.00
2018-05-11T13:36:45.968Z,40.40
2018-05-11T13:39:13.512Z,41.60
2018-05-11T13:41:40.981Z,41.80
2018-05-11T13:44:08.492Z,41.60
2018-05-11T13:46:36.033Z,40.30
2018-05-11T13:49:03.537Z,40.60
2018-05-11T13:51:31.054Z,40.60
2018-05-11T13:53:58.623Z,40.00
2018-05-11T13:56:26.233Z,39.40
2018-05-11T13:58:54.444Z,39.80
2018-05-11T14:01:22.720Z,39.80
2018-05-11T14:03:50.224Z,39.80
2018-05-11T14:06:17.744Z,39.70
2018-05-11T14:08:45.252Z,42.00
2018-05-11T14:11:12.750Z,40.50
2018-05-11T14:13:41.015Z,41.60
2018-05-11T14:16:09.281Z,40.00
2018-05-11T14:18:37.470Z,40.00
2018-05-11T14:21:05.720Z,40.80
2018-05-11T14:23:33.210Z,40.80
2018-05-11T14:26:01.490Z,40.40
2018-05-11T14:28:29.721Z,39.70
2018-05-11T14:30:57.248Z,39.70
2018-05-11T14:33:24.780Z,39.30
2018-05-11T14:35:53.021Z,39.40
2018-05-11T14:38:21.471Z,39.10
2018-05-11T14:40:48.949Z,39.30
2018-05-11T14:43:16.481Z,40.70
2018-05-11T14:45:44.013Z,40.40
2018-05-11T14:48:12.303Z,41.50
2018-05-11T14:50:40.553Z,41.40
2018-05-11T14:53:08.077Z,41.40
2018-05-11T14:55:35.568Z,40.70
2018-05-11T14:58:03.849Z,40.00
2018-05-11T15:00:32.813Z,39.90
2018-05-11T15:03:00.352Z,39.90
2018-05-11T15:05:27.829Z,41.00
2018-05-11T15:07:55.318Z,40.90
2018-05-11T15:10:22.837Z,40.80
2018-05-11T15:12:50.352Z,40.50
2018-05-11T15:15:18.618Z,40.50
2018-05-11T15:17:46.930Z,40.40
2018-05-11T15:20:14.411Z,40.20
2018-05-11T15:22:41.873Z,40.70
2018-05-11T15:25:09.389Z,39.90
2018-05-11T15:27:36.871Z,39.80
2018-05-11T15:30:04.369Z,40.70
2018-05-11T15:32:31.858Z,40.60
2018-05-11T15:35:00.138Z,40.50
2018-05-11T15:37:28.408Z,40.30
2018-05-11T15:39:55.941Z,40.10
2018-05-11T15:42:23.486Z,39.60
2018-05-11T15:44:51.739Z,39.80
2018-05-11T15:47:19.204Z,39.60
2018-05-11T15:49:46.721Z,39.70
2018-05-11T15:52:14.967Z,40.10
2018-05-11T15:54:42.465Z,40.10
2018-05-11T15:57:10.716Z,39.60
2018-05-11T15:59:38.225Z,39.60
2018-05-11T16:02:05.718Z,39.60
2018-05-11T16:04:33.186Z,40.20
2018-05-11T16:07:00.689Z,40.30
2018-05-11T16:09:28.161Z,40.70
2018-05-11T16:11:55.675Z,40.20
2018-05-11T16:14:23.162Z,40.40
2018-05-11T16:16:51.411Z,39.70
2018-05-11T16:19:18.925Z,39.80
2018-05-11T16:21:46.439Z,39.70
2018-05-11T16:24:14.710Z,39.70
2018-05-11T16:26:42.239Z,39.70
2018-05-11T16:29:09.713Z,40.00
2018-05-11T16:31:37.248Z,40.00
2018-05-11T16:34:04.738Z,39.70
2018-05-11T16:36:32.213Z,39.60
2018-05-11T16:39:00.497Z,39.50
2018-05-11T16:41:28.735Z,39.80
2018-05-11T16:43:56.253Z,39.60
2018-05-11T16:46:23.753Z,39.60
2018-05-11T16:48:51.257Z,39.60
2018-05-11T16:51:18.745Z,39.70
2018-05-11T16:53:46.260Z,39.50
2018-05-11T16:56:14.574Z,39.30
2018-05-11T16:58:42.048Z,39.30
2018-05-11T17:01:09.544Z,39.50
2018-05-11T17:03:37.839Z,39.10
2018-05-11T17:06:06.131Z,38.80
2018-05-11T17:08:33.656Z,38.80
2018-05-11T17:11:01.141Z,38.60
2018-05-11T17:13:28.635Z,38.90
2018-05-11T17:15:56.138Z,38.80
2018-05-11T17:18:24.397Z,39.10
2018-05-11T17:20:51.904Z,39.10
2018-05-11T17:23:19.486Z,39.10
2018-05-11T17:25:46.990Z,39.20
2018-05-11T17:28:14.499Z,38.90
2018-05-11T17:30:41.963Z,39.20
2018-05-11T17:33:09.456Z,39.20
2018-05-11T17:35:36.975Z,39.30
2018-05-11T17:38:04.468Z,39.40
2018-05-11T17:40:31.969Z,40.00
2018-05-11T17:42:59.470Z,39.70
2018-05-11T17:45:26.971Z,40.00
2018-05-11T17:47:55.223Z,39.70
2018-05-11T17:50:22.798Z,39.70
2018-05-11T17:52:50.301Z,39.60
2018-05-11T17:55:17.796Z,39.80
2018-05-11T17:57:45.320Z,39.60
2018-05-11T18:00:12.791Z,39.70
2018-05-11T18:02:40.319Z,40.30
2018-05-11T18:05:07.809Z,40.70
2018-05-11T18:07:35.338Z,40.70
2018-05-11T18:10:02.862Z,41.10
2018-05-11T18:12:30.373Z,41.30
2018-05-11T18:14:57.882Z,41.50
2018-05-11T18:17:25.372Z,41.20
2018-05-11T18:19:53.651Z,42.70
2018-05-11T18:22:21.185Z,42.70
2018-05-11T18:24:48.660Z,43.20
2018-05-11T18:27:16.930Z,44.20
2018-05-11T18:29:45.207Z,44.70
2018-05-11T18:32:13.451Z,46.70
2018-05-11T18:34:40.958Z,46.80
2018-05-11T18:37:08.586Z,48.80
2018-05-11T18:39:36.131Z,50.70
2018-05-11T18:42:03.630Z,51.90
2018-05-11T18:44:31.893Z,59.20
2018-05-11T18:46:59.440Z,59.20
2018-05-11T18:49:26.917Z,59.80
2018-05-11T18:51:55.170Z,60.40
2018-05-11T18:54:23.891Z,60.40
2018-05-11T18:56:50.985Z,60.40
2018-05-11T18:59:18.493Z,61.00
2018-05-11T19:01:46.813Z,61.50
2018-05-11T19:04:15.009Z,61.90
2018-05-11T19:06:42.526Z,61.90
2018-05-11T19:09:10.043Z,62.40
2018-05-11T19:11:37.536Z,63.10
2018-05-11T19:14:05.041Z,63.10
2018-05-11T19:16:32.593Z,63.60
2018-05-11T19:19:00.054Z,63.80
2018-05-11T19:21:27.586Z,64.10
2018-05-11T19:23:55.073Z,64.30
2018-05-11T19:26:22.590Z,64.60
2018-05-11T19:28:50.098Z,64.60
2018-05-11T19:31:17.602Z,64.50
2018-05-11T19:33:45.877Z,64.50
2018-05-11T19:36:14.187Z,64.70
2018-05-11T19:38:41.709Z,64.70
2018-05-11T19:41:09.969Z,65.30
2018-05-11T19:43:37.506Z,65.30
2018-05-11T19:46:05.010Z,65.10
2018-05-11T19:48:33.276Z,65.30
2018-05-11T19:51:01.531Z,65.50
2018-05-11T19:53:29.062Z,65.50
2018-05-11T19:55:56.552Z,66.00
2018-05-11T19:58:24.841Z,65.60
2018-05-11T20:00:53.093Z,65.60
2018-05-11T20:03:20.660Z,65.70
2018-05-11T20:05:48.150Z,66.30
2018-05-11T20:08:16.406Z,67.10
2018-05-11T20:10:43.936Z,67.10
2018-05-11T20:13:11.437Z,67.20
2018-05-11T20:15:39.729Z,66.90
2018-05-11T20:18:08.041Z,66.80
2018-05-11T20:20:36.261Z,66.80
2018-05-11T20:23:03.763Z,66.80
2018-05-11T20:25:31.249Z,67.00
2018-05-11T20:27:58.963Z,67.00
2018-05-11T20:30:27.263Z,67.50
2018-05-11T20:32:54.777Z,67.50
2018-05-11T20:35:23.056Z,67.90
2018-05-11T20:37:50.563Z,67.90
2018-05-11T20:40:18.079Z,68.00
2018-05-11T20:42:45.602Z,68.50
2018-05-11T20:45:13.105Z,68.30
2018-05-11T20:47:40.608Z,68.10
2018-05-11T20:50:08.102Z,67.80
2018-05-11T20:52:35.601Z,67.70
2018-05-11T20:55:03.108Z,68.00
2018-05-11T20:57:30.638Z,68.40
2018-05-11T20:59:58.129Z,68.30
2018-05-11T21:02:25.601Z,68.40
2018-05-11T21:04:53.114Z,68.00
2018-05-11T21:07:20.643Z,68.10
2018-05-11T21:09:48.928Z,68.40
2018-05-11T21:12:16.421Z,68.40
2018-05-11T21:14:44.007Z,68.80
2018-05-11T21:17:12.257Z,69.20
2018-05-11T21:19:39.761Z,69.10
2018-05-11T21:22:08.036Z,69.00
2018-05-11T21:24:35.534Z,69.00
2018-05-11T21:27:03.735Z,69.30
2018-05-11T21:29:31.267Z,69.10
2018-05-11T21:31:58.744Z,69.00
2018-05-11T21:34:26.229Z,69.00
2018-05-11T21:36:54.514Z,69.60
2018-05-11T21:39:21.991Z,69.60
2018-05-11T21:41:50.257Z,69.90
2018-05-11T21:44:18.519Z,70.30
2018-05-11T21:46:46.026Z,70.30
2018-05-11T21:49:13.533Z,70.20
2018-05-11T21:51:41.012Z,70.10
2018-05-11T21:54:09.293Z,70.00
2018-05-11T21:56:37.549Z,70.40
2018-05-11T21:59:05.064Z,70.30
2018-05-11T22:01:32.544Z,70.30
2018-05-11T22:04:00.042Z,70.40
2018-05-11T22:06:27.547Z,70.40
2018-05-11T22:08:55.051Z,70.40
2018-05-11T22:11:22.561Z,70.50
2018-05-11T22:13:50.060Z,70.60
2018-05-11T22:16:17.572Z,70.70
2018-05-11T22:18:45.051Z,70.60
2018-05-11T22:21:12.573Z,70.50
2018-05-11T22:23:40.049Z,70.30
2018-05-11T22:26:07.615Z,70.20
2018-05-11T22:28:35.102Z,69.80
2018-05-11T22:31:02.591Z,70.00
2018-05-11T22:33:30.100Z,70.30
2018-05-11T22:35:57.590Z,70.60
2018-05-11T22:38:25.093Z,70.50
2018-05-11T22:40:52.558Z,70.20
2018-05-11T22:43:20.081Z,70.60
2018-05-11T22:45:47.581Z,70.80
2018-05-11T22:48:15.101Z,71.00
2018-05-11T22:50:43.382Z,70.80
2018-05-11T22:53:11.637Z,71.00
2018-05-11T22:55:39.150Z,70.90
2018-05-11T22:58:06.621Z,70.50
2018-05-11T23:00:34.144Z,70.40
2018-05-11T23:03:02.420Z,70.70
2018-05-11T23:05:30.693Z,70.80
2018-05-11T23:07:58.960Z,70.60
2018-05-11T23:10:26.433Z,70.60
2018-05-11T23:12:53.982Z,70.70
2018-05-11T23:15:22.256Z,71.30
2018-05-11T23:17:50.537Z,70.80
2018-05-11T23:20:18.822Z,70.60
2018-05-11T23:22:47.078Z,70.40
2018-05-11T23:25:14.589Z,70.40
2018-05-11T23:27:42.076Z,70.80
2018-05-11T23:30:09.566Z,70.90
2018-05-11T23:32:37.844Z,71.00
2018-05-11T23:35:06.158Z,71.10
2018-05-11T23:37:34.374Z,71.30
2018-05-11T23:40:01.873Z,71.30
2018-05-11T23:42:29.351Z,71.20
2018-05-11T23:44:56.850Z,71.10
2018-05-11T23:47:25.827Z,71.10
2018-05-11T23:49:53.340Z,71.10
2018-05-11T23:52:20.824Z,70.80
2018-05-11T23:54:48.342Z,70.70
2018-05-11T23:57:16.601Z,71.00
2018-05-11T23:59:44.113Z,71.00
